M I D A S
Marine Information and Data Acquisition System
Tripno 1884 of the Zeeleeuw from 2010-05-18 07:04:42 to 2010-05-18 13:57:27
Back to CruiseResearch ActivitiesStationsMapUnderway DataData graphs

EquipmentUnitsComment
TimeDGPSUTC
LatitudeDGPSDM.mWGS84
LongitudeDGPSDM.mWGS84
HeadingGyrodeg 
SOGDGPSknotsSpeed over ground
COGDGPSdegCourse over ground
DepthEcho soundermeters200 kHz
Missing or incorrect values are displayed as -999
Navigation data collected by the RV Zeeleeuw from 2010-05-18 07:07:35 to 2010-05-18 14:02:46
Time Latitude Longitude Heading SOG COG Depth
2010-05-18 07:08:43 51°13.676 2°55.901 110.7 3.1 292 -999
2010-05-18 07:09:44 51°13.693 2°55.812 99 3.6 283 -999
2010-05-18 07:10:42 51°13.699 2°55.742 80.5 1.1 277 11.9
2010-05-18 07:11:41 51°13.708 2°55.738 37.4 1 13 12.6
2010-05-18 07:12:40 51°13.735 2°55.735 347.5 2.2 338 11.6
2010-05-18 07:13:40 51°13.809 2°55.661 328.6 7.8 328 10.8
2010-05-18 07:14:40 51°13.935 2°55.553 330.5 8.8 329 10.7
2010-05-18 07:15:40 51°14.065 2°55.444 336.2 8.9 334 10
2010-05-18 07:16:40 51°14.205 2°55.331 336.2 10.2 333 10.5
2010-05-18 07:17:40 51°14.367 2°55.172 329.3 12.3 326 10.3
2010-05-18 07:18:40 51°14.553 2°55.008 332.3 13.2 320 11.1
2010-05-18 07:19:40 51°14.726 2°54.781 336.8 13.3 331 11.4
2010-05-18 07:20:40 51°14.917 2°54.602 332.8 13.4 326 11.2
2010-05-18 07:21:40 51°15.1 2°54.402 330.3 13.5 325 9.3
2010-05-18 07:22:40 51°15.283 2°54.19 326.5 13.7 322 9.6
2010-05-18 07:26:30 51°15.962 2°53.299 326.3 13.7 320 11.2
2010-05-18 07:27:30 51°16.155 2°53.113 339.8 13.6 334 11.5
2010-05-18 07:28:30 51°16.363 2°52.973 345.6 13.6 340 11.3
2010-05-18 07:29:30 51°16.575 2°52.849 345.4 13.5 340 10.9
2010-05-18 07:30:30 51°16.787 2°52.725 345 13.4 339 9.2
2010-05-18 07:31:30 51°16.997 2°52.599 344.9 13.6 340 9.5
2010-05-18 07:32:30 51°17.209 2°52.472 344.8 13.7 340 9.4
2010-05-18 07:33:30 51°17.422 2°52.345 344.1 13.7 339 9.8
2010-05-18 07:34:30 51°17.635 2°52.219 344.5 13.7 339 10.8
2010-05-18 07:35:30 51°17.848 2°52.092 344.1 13.6 340 10.5
2010-05-18 07:36:30 51°18.06 2°51.964 344.1 13.5 339 9.9
2010-05-18 07:37:30 51°18.271 2°51.829 344.7 13.7 339 10.7
2010-05-18 07:38:30 51°18.483 2°51.693 343.9 13.7 337 11.9
2010-05-18 07:39:30 51°18.693 2°51.553 344.1 13.6 337 13.2
2010-05-18 07:40:30 51°18.903 2°51.414 344.1 13.6 338 13.9
2010-05-18 07:41:30 51°19.113 2°51.277 344.4 13.7 338 14.1
2010-05-18 07:42:30 51°19.322 2°51.143 344.8 13.5 339 14.5
2010-05-18 07:43:30 51°19.531 2°51.009 344.5 13.5 338 13.4
2010-05-18 07:44:30 51°19.74 2°50.874 344.2 13.6 338 11.3
2010-05-18 07:45:30 51°19.95 2°50.737 343.9 13.7 337 12.1
2010-05-18 07:46:30 51°20.162 2°50.597 344.3 13.8 338 14.6
2010-05-18 07:47:30 51°20.373 2°50.457 344 13.7 337 16.5
2010-05-18 07:48:30 51°20.583 2°50.32 346.3 13.5 342 19.7
2010-05-18 07:49:30 51°20.8 2°50.235 355.3 13.5 348 22
2010-05-18 07:50:30 51°21.02 2°50.165 359.4 13.3 355 22.8
2010-05-18 07:51:30 51°21.237 2°50.212 21 13.2 15 22.4
2010-05-18 07:52:30 51°21.447 2°50.306 21.7 13.2 15 22.3
2010-05-18 07:53:30 51°21.66 2°50.391 20.8 13.2 14 22.2
2010-05-18 07:54:30 51°21.875 2°50.471 20.1 13.2 13 21.8
2010-05-18 07:55:30 51°22.095 2°50.506 4.2 13.6 355 22.3
2010-05-18 07:56:30 51°22.32 2°50.452 356.9 13.6 350 22.1
2010-05-18 07:57:30 51°22.539 2°50.338 344.8 13.9 341 22
2010-05-18 07:58:30 51°22.747 2°50.178 337.6 13.9 334 17.6
2010-05-18 07:59:30 51°22.949 2°50.002 335.4 14 328 15
2010-05-18 08:00:30 51°23.15 2°49.832 337.7 13.6 332 16.8
2010-05-18 08:01:30 51°23.354 2°49.664 338.4 13.8 333 18.7
2010-05-18 08:02:30 51°23.558 2°49.499 338.5 13.8 332 20.3
2010-05-18 08:03:30 51°23.762 2°49.332 339 13.7 333 21.9
2010-05-18 08:04:30 51°23.966 2°49.166 339.1 13.8 333 21.8
2010-05-18 08:05:30 51°24.17 2°48.999 339.5 13.8 333 22.2
2010-05-18 08:06:30 51°24.374 2°48.833 339.3 13.7 333 21.2
2010-05-18 08:07:30 51°24.578 2°48.665 339.8 13.8 333 19.3
2010-05-18 08:08:30 51°24.784 2°48.499 339.6 13.8 334 21.9
2010-05-18 08:09:30 51°24.99 2°48.335 338.8 13.8 334 26.7
2010-05-18 08:10:30 51°25.212 2°48.276 1.4 13.5 357 29.1
2010-05-18 08:11:30 51°25.436 2°48.251 1.1 13.5 355 26.8
2010-05-18 08:12:30 51°25.66 2°48.217 0.3 13.4 354 23
2010-05-18 08:13:30 51°25.883 2°48.178 0.1 13.5 354 22.7
2010-05-18 08:14:30 51°26.105 2°48.138 359.8 13.5 353 22.1
2010-05-18 08:15:30 51°26.328 2°48.097 359.4 13.5 354 18.7
2010-05-18 08:16:30 51°26.553 2°48.058 359.1 13.5 354 22.2
2010-05-18 08:17:30 51°26.776 2°48.021 359.4 13.5 354 23.3
2010-05-18 08:18:30 51°27.001 2°47.986 359.4 13.6 354 23.3
2010-05-18 08:19:30 51°27.225 2°47.954 359.4 13.6 356 26.3
2010-05-18 08:20:30 51°27.45 2°47.921 359.4 13.5 353 25.8
2010-05-18 08:21:30 51°27.672 2°47.88 359.3 13.4 353 25.5
2010-05-18 08:22:30 51°27.893 2°47.843 359.6 13.3 354 28
2010-05-18 08:23:30 51°28.114 2°47.807 359.4 13.5 354 28.6
2010-05-18 08:24:30 51°28.337 2°47.771 358.8 13.4 354 30.9
2010-05-18 08:25:30 51°28.56 2°47.736 359.4 13.4 354 29.3
2010-05-18 08:26:46 51°28.842 2°47.691 359.6 13.4 355 26.4
2010-05-18 08:29:58 51°29.554 2°47.583 359.1 13.4 354 22.4
2010-05-18 08:30:58 51°29.776 2°47.541 357.2 13.4 353 24.6
2010-05-18 08:31:58 51°29.999 2°47.5 357.4 13.4 354 25
2010-05-18 08:32:58 51°30.219 2°47.455 356.7 13.3 352 20.3
2010-05-18 08:33:58 51°30.436 2°47.41 357.6 13.1 353 26.9
2010-05-18 08:34:58 51°30.651 2°47.365 357.6 13.1 352 26.3
2010-05-18 08:35:58 51°30.868 2°47.32 357.2 13.1 353 28.1
2010-05-18 08:36:58 51°31.084 2°47.276 357.5 13.1 353 27.1
2010-05-18 08:37:58 51°31.301 2°47.232 357.3 13.1 354 26.5
2010-05-18 08:38:58 51°31.517 2°47.182 356.8 13.1 351 29
2010-05-18 08:39:58 51°31.731 2°47.127 357.9 13.1 352 28.3
2010-05-18 08:40:58 51°31.947 2°47.074 357.5 13.1 351 29.6
2010-05-18 08:41:58 51°32.163 2°47.019 357 13.2 351 29.7
2010-05-18 08:42:58 51°32.379 2°46.965 357.2 13.1 351 29.2
2010-05-18 08:43:58 51°32.596 2°46.911 357.5 13.2 351 31.3
2010-05-18 08:44:58 51°32.812 2°46.861 357.9 13 353 33.1
2010-05-18 08:45:58 51°33.027 2°46.814 357.5 12.9 352 29.2
2010-05-18 08:46:58 51°33.241 2°46.766 357.1 13.1 352 30.9
2010-05-18 08:47:58 51°33.456 2°46.717 357.3 13.1 352 32.1
2010-05-18 08:48:58 51°33.671 2°46.667 357.2 13 352 30.6
2010-05-18 08:49:58 51°33.886 2°46.619 357.2 13 352 30.4
2010-05-18 08:50:58 51°34.101 2°46.57 357.2 13.1 352 30.3
2010-05-18 08:51:58 51°34.317 2°46.52 357.1 13.2 351 33.6
2010-05-18 08:52:58 51°34.534 2°46.47 357.1 13.2 351 32.5
2010-05-18 08:53:58 51°34.751 2°46.424 357.1 13.2 352 32
2010-05-18 08:54:58 51°34.968 2°46.377 357.5 13.1 352 32.2
2010-05-18 08:55:58 51°35.183 2°46.331 356.8 13.1 352 31
2010-05-18 08:56:58 51°35.398 2°46.282 357.2 13.1 351 23.8
2010-05-18 08:57:58 51°35.615 2°46.229 357.5 13.2 351 16.4
2010-05-18 08:58:58 51°35.833 2°46.171 357.5 13.3 352 18.7
2010-05-18 08:59:58 51°36.052 2°46.112 356.7 13.3 350 20.7
2010-05-18 09:00:58 51°36.258 2°46.062 358 11.6 352 23.9
2010-05-18 09:01:58 51°36.443 2°46.017 356.9 10.9 351 27.3
2010-05-18 09:02:58 51°36.602 2°45.973 357.4 9.2 350 29.4
2010-05-18 09:03:58 51°36.75 2°45.966 16.1 8.7 11 29.3
2010-05-18 09:04:58 51°36.871 2°46.106 49.7 9.3 48 27.3
2010-05-18 09:05:58 51°36.966 2°46.284 51.4 7.3 49 26.6
2010-05-18 09:06:58 51°37.026 2°46.395 52.7 4.6 48 24.9
2010-05-18 09:07:58 51°37.089 2°46.445 19.2 4.2 9 27.9
2010-05-18 09:08:58 51°37.167 2°46.475 25.5 5.2 17 24.9
2010-05-18 09:09:58 51°37.281 2°46.529 23.8 9 17 25.1
2010-05-18 09:10:58 51°37.423 2°46.6 24 8.6 18 27.6
2010-05-18 09:11:58 51°37.573 2°46.681 28.8 10.7 24 27.7
2010-05-18 09:12:58 51°37.747 2°46.816 30.2 11.9 25 25.5
2010-05-18 09:13:58 51°37.927 2°46.954 29.6 12 26 25
2010-05-18 09:14:58 51°38.111 2°47.081 26.3 12 20 23.1
2010-05-18 09:15:58 51°38.298 2°47.198 24.7 12.1 20 22.2
2010-05-18 09:16:58 51°38.484 2°47.315 24.8 12.1 18 22.4
2010-05-18 09:17:58 51°38.668 2°47.437 26.9 11.9 23 22
2010-05-18 09:18:58 51°38.852 2°47.554 28.9 11.8 23 18
2010-05-18 09:19:58 51°39.036 2°47.671 25.4 11.9 19 18.9
2010-05-18 09:20:58 51°39.222 2°47.772 23.5 11.9 18 21.7
2010-05-18 09:21:58 51°39.408 2°47.881 24.1 11.9 18 18.4
2010-05-18 09:22:58 51°39.597 2°47.979 21.2 12 14 19.8
2010-05-18 09:23:58 51°39.783 2°48.081 23.3 11.9 17 16.5
2010-05-18 09:24:58 51°39.97 2°48.186 25 11.9 20 23.5
2010-05-18 09:25:58 51°40.155 2°48.304 26.3 12 19 21.9
2010-05-18 09:26:58 51°40.343 2°48.411 24.8 12.1 18 20.3
2010-05-18 09:27:58 51°40.528 2°48.527 26.2 11.9 20 18.9
2010-05-18 09:28:58 51°40.715 2°48.633 26 11.9 22 23.2
2010-05-18 09:30:14 51°40.947 2°48.791 27.1 11.9 25 23.4
2010-05-18 09:31:33 51°41.196 2°48.941 23.9 12.3 20 22.5
2010-05-18 09:32:57 51°41.469 2°49.092 27 12.1 25 24.1
2010-05-18 09:33:57 51°41.655 2°49.229 32 12.4 28 20.6
2010-05-18 09:34:57 51°41.83 2°49.399 35.4 12.3 31 21.7
2010-05-18 09:35:57 51°42.027 2°49.473 2.3 12.5 352 26.4
2010-05-18 09:36:57 51°42.22 2°49.329 335.3 13.1 330 28.8
2010-05-18 09:37:57 51°42.398 2°49.119 325.8 13.4 318 25.2
2010-05-18 09:38:57 51°42.492 2°48.792 285.7 14 278 27.9
2010-05-18 09:39:57 51°42.447 2°48.42 249.9 14.5 243 28.3
2010-05-18 09:40:57 51°42.295 2°48.113 223.6 14.9 220 32.6
2010-05-18 09:41:57 51°42.085 2°47.904 203.3 15 204 30.8
2010-05-18 09:42:57 51°41.86 2°47.737 202.8 15.1 206 31.5
2010-05-18 09:43:57 51°41.638 2°47.56 205.9 15 207 30
2010-05-18 09:44:57 51°41.412 2°47.395 198.4 14.9 201 34
2010-05-18 09:45:57 51°41.179 2°47.265 197.2 14.8 197 32.2
2010-05-18 09:46:57 51°40.947 2°47.131 197.5 14.8 199 34.3
2010-05-18 09:47:57 51°40.716 2°46.993 198.8 14.8 201 33
2010-05-18 09:48:57 51°40.483 2°46.856 199 14.9 200 33.5
2010-05-18 09:49:57 51°40.25 2°46.716 199.7 15 200 34.6
2010-05-18 09:50:57 51°40.046 2°46.495 225.4 14.9 223 34.6
2010-05-18 09:51:57 51°39.92 2°46.161 257.7 14.3 254 37.6
2010-05-18 09:52:57 51°39.947 2°45.792 293.9 13.8 288 39.6
2010-05-18 09:53:57 51°40.022 2°45.441 297.8 14 289 38.4
2010-05-18 09:54:57 51°40.102 2°45.091 297.8 13.9 290 36.5
2010-05-18 09:55:57 51°40.183 2°44.743 298.7 14 290 37.6
2010-05-18 09:56:57 51°40.262 2°44.39 297 14 288 35.7
2010-05-18 09:57:57 51°40.324 2°44.025 293.2 14.2 285 35.2
2010-05-18 09:58:57 51°40.387 2°43.66 294 14.2 286 35.1
2010-05-18 09:59:57 51°40.452 2°43.293 294.1 14.3 285 34.9
2010-05-18 10:00:57 51°40.519 2°42.926 294.4 14.3 286 33.5
2010-05-18 10:01:57 51°40.587 2°42.56 293.7 14.3 287 33
2010-05-18 10:02:57 51°40.655 2°42.192 294 14.3 287 31.8
2010-05-18 10:03:57 51°40.725 2°41.824 294.2 14.3 288 30.1
2010-05-18 10:04:57 51°40.794 2°41.455 294 14.4 287 32.3
2010-05-18 10:05:57 51°40.864 2°41.086 294.2 14.4 286 36.5
2010-05-18 10:06:57 51°40.933 2°40.718 294.4 14.3 289 38.4
2010-05-18 10:07:57 51°41.002 2°40.351 294.2 14.2 288 38.7
2010-05-18 10:08:57 51°41.068 2°39.982 294.5 14.4 284 38
2010-05-18 10:09:57 51°41.136 2°39.616 294.3 14.3 286 37.2
2010-05-18 10:10:57 51°41.202 2°39.252 294.5 14 287 37.5
2010-05-18 10:11:57 51°41.268 2°38.891 294 13.9 288 42.4
2010-05-18 10:12:57 51°41.332 2°38.531 294.1 14 285 41.2
2010-05-18 10:13:57 51°41.397 2°38.168 294.2 14.1 286 39.1
2010-05-18 10:14:57 51°41.462 2°37.805 294.2 14.1 286 37.6
2010-05-18 10:15:57 51°41.472 2°37.421 273 14.6 269 36.1
2010-05-18 10:16:57 51°41.354 2°37.097 215.5 14.6 212 33.3
2010-05-18 10:17:57 51°41.116 2°37.032 184.4 15.1 189 32.3
2010-05-18 10:18:57 51°40.876 2°36.903 199.5 15.5 204 32.3
2010-05-18 10:19:57 51°40.635 2°36.774 192.7 15.3 197 32.8
2010-05-18 10:20:57 51°40.392 2°36.656 192.7 15.1 199 32.8
2010-05-18 10:21:57 51°40.148 2°36.54 192.2 15.3 197 33.9
2010-05-18 10:22:57 51°39.904 2°36.425 192.8 15.4 194 32.5
2010-05-18 10:23:57 51°39.661 2°36.309 192.1 15.2 197 32.5
2010-05-18 10:24:57 51°39.417 2°36.192 192.7 15.3 198 34
2010-05-18 10:25:57 51°39.173 2°36.076 192.4 15.4 196 34.4
2010-05-18 10:26:57 51°38.928 2°35.958 193.3 15.5 196 35.2
2010-05-18 10:27:57 51°38.684 2°35.826 194.5 15.4 198 35.3
2010-05-18 10:28:57 51°38.44 2°35.699 194.7 15.3 198 33.9
2010-05-18 10:29:57 51°38.197 2°35.571 194.6 15.4 198 35.3
2010-05-18 10:30:57 51°37.955 2°35.447 194.2 15.3 198 34.7
2010-05-18 10:31:57 51°37.713 2°35.324 193.7 15.1 198 35.1
2010-05-18 10:34:26 51°37.102 2°35.084 189.5 15.4 194 31.1
2010-05-18 10:36:50 51°36.511 2°34.881 185.4 15.2 190 28.9
2010-05-18 10:37:50 51°36.264 2°34.809 185.2 15.1 187 29.2
2010-05-18 10:38:50 51°36.018 2°34.729 186 15.1 190 28.3
2010-05-18 10:39:51 51°35.767 2°34.649 186.1 15.2 191 32.7
2010-05-18 10:40:50 51°35.524 2°34.571 186.3 15.3 191 35.3
2010-05-18 10:41:50 51°35.277 2°34.491 186.6 15.1 191 33.6
2010-05-18 10:42:50 51°35.028 2°34.41 186.5 15.4 193 34.6
2010-05-18 10:43:50 51°34.779 2°34.325 186.5 15.2 191 35.1
2010-05-18 10:44:50 51°34.532 2°34.237 185.9 15.1 192 33.7
2010-05-18 10:45:50 51°34.285 2°34.149 185.6 15.2 192 33.7
2010-05-18 10:46:50 51°34.039 2°34.063 186.3 15.3 192 29.8
2010-05-18 10:47:51 51°33.788 2°33.981 186.1 15.1 190 30
2010-05-18 10:48:50 51°33.544 2°33.905 186.4 15.1 191 28.9
2010-05-18 10:49:51 51°33.292 2°33.825 186.6 15.1 195 31.9
2010-05-18 10:50:50 51°33.052 2°33.752 186.6 15 191 31.6
2010-05-18 10:51:51 51°32.803 2°33.677 186.2 15 190 33.6
2010-05-18 10:52:50 51°32.563 2°33.604 186.6 15.1 191 34.5
2010-05-18 10:53:50 51°32.319 2°33.529 185.8 15.1 192 34.1
2010-05-18 10:54:50 51°32.075 2°33.455 186.4 15 191 33.4
2010-05-18 10:55:50 51°31.832 2°33.38 186.2 15 192 33.2
2010-05-18 10:56:51 51°31.585 2°33.3 187.4 14.9 192 31.3
2010-05-18 10:57:50 51°31.347 2°33.224 186.1 14.7 192 30.6
2010-05-18 10:58:51 51°31.1 2°33.143 185.4 14.9 191 27.3
2010-05-18 10:59:50 51°30.863 2°33.068 186.3 14.9 191 26.1
2010-05-18 11:00:50 51°30.621 2°32.988 185.9 14.9 193 24.3
2010-05-18 11:01:51 51°30.376 2°32.927 176.6 14.6 181 22.5
2010-05-18 11:02:50 51°30.156 2°33.02 146 13.7 152 22.1
2010-05-18 11:03:51 51°29.98 2°33.248 130.3 13.4 140 20.1
2010-05-18 11:04:50 51°29.811 2°33.471 135.3 13.3 145 16
2010-05-18 11:05:50 51°29.622 2°33.666 138.3 13.5 148 15.2
2010-05-18 11:06:50 51°29.472 2°33.905 112.6 12.6 116 26
2010-05-18 11:07:50 51°29.375 2°34.21 107.2 12.8 115 37
2010-05-18 11:08:50 51°29.289 2°34.517 99.5 12.3 108 36.9
2010-05-18 11:09:50 51°29.274 2°34.838 85 12.1 90 38.5
2010-05-18 11:10:50 51°29.269 2°35.16 86.3 12.1 92 36
2010-05-18 11:11:51 51°29.269 2°35.487 77.1 11.7 76 35.6
2010-05-18 11:12:51 51°29.356 2°35.763 48 11.5 46 34.6
2010-05-18 11:13:50 51°29.53 2°35.884 16.8 12 11 33.9
2010-05-18 11:14:51 51°29.732 2°35.938 13.6 12.1 9 33.2
2010-05-18 11:15:50 51°29.929 2°35.989 13.8 12.2 10 34.6
2010-05-18 11:16:50 51°30.126 2°36.062 19.7 12 15 35.1
2010-05-18 11:17:50 51°30.32 2°36.149 19.4 12.1 15 34.1
2010-05-18 11:18:51 51°30.517 2°36.237 19.4 12 15 35.2
2010-05-18 11:19:50 51°30.707 2°36.323 20.3 12.1 17 35
2010-05-18 11:20:50 51°30.901 2°36.41 19.1 12.1 17 34.4
2010-05-18 11:21:50 51°31.093 2°36.448 351.1 11.8 337 36.3
2010-05-18 11:22:50 51°31.181 2°36.167 287.5 12.6 280 37.7
2010-05-18 11:23:50 51°31.185 2°35.899 276.9 8.8 268 38.3
2010-05-18 11:24:50 51°31.179 2°35.679 279 8 267 36.9
2010-05-18 11:25:50 51°31.167 2°35.479 278.2 7.2 263 37.1
2010-05-18 11:26:50 51°31.121 2°35.325 233.8 6 228 37.2
2010-05-18 11:27:51 51°31.041 2°35.243 190.2 5.3 201 37.7
2010-05-18 11:28:51 51°30.955 2°35.206 176.5 5.4 191 37.3
2010-05-18 11:29:50 51°30.868 2°35.186 168.2 5.4 186 37.7
2010-05-18 11:30:50 51°30.779 2°35.18 160.4 5.3 180 37
2010-05-18 11:31:50 51°30.693 2°35.188 153 5.1 174 37.1
2010-05-18 11:32:51 51°30.61 2°35.206 155.4 4.9 179 36.9
2010-05-18 11:33:50 51°30.535 2°35.167 207.4 4.8 212 37.3
2010-05-18 11:34:50 51°30.483 2°35.078 254.5 4.5 239 37.2
2010-05-18 11:35:50 51°30.464 2°34.972 293.8 4 264 37.4
2010-05-18 11:38:02 51°30.571 2°34.971 48 9 48 36.7
2010-05-18 11:39:54 51°30.844 2°35.312 37.7 11.5 36 38.3
2010-05-18 11:40:55 51°31.002 2°35.5 38.4 11.6 36 37.4
2010-05-18 11:41:55 51°31.158 2°35.687 38.4 11.8 36 37.1
2010-05-18 11:42:55 51°31.313 2°35.878 39.3 11.8 38 38.1
2010-05-18 11:43:54 51°31.467 2°36.064 39.3 11.8 37 38.7
2010-05-18 11:44:55 51°31.626 2°36.257 39.4 11.9 37 38.6
2010-05-18 11:45:55 51°31.784 2°36.451 38.9 12 38 38.7
2010-05-18 11:46:54 51°31.94 2°36.639 39.3 11.8 37 39.7
2010-05-18 11:47:55 51°32.1 2°36.831 39.2 11.8 36 38.1
2010-05-18 11:48:55 51°32.257 2°37.023 39.7 11.9 36 37.1
2010-05-18 11:49:54 51°32.411 2°37.213 39.3 11.9 37 34.6
2010-05-18 11:50:54 51°32.582 2°37.371 28.6 12 25 33.5
2010-05-18 11:51:55 51°32.767 2°37.508 28.3 12.1 24 33.5
2010-05-18 11:52:54 51°32.946 2°37.643 28.3 12.2 25 33.3
2010-05-18 11:53:54 51°33.127 2°37.781 28.7 12 25 33.5
2010-05-18 11:54:54 51°33.307 2°37.921 29.3 12.1 27 34.1
2010-05-18 11:55:54 51°33.488 2°38.061 29.6 12.2 25 33.2
2010-05-18 11:56:55 51°33.675 2°38.205 28.9 12.2 26 33.2
2010-05-18 11:57:54 51°33.854 2°38.346 29.1 12.2 27 32.9
2010-05-18 11:58:55 51°34.039 2°38.491 29.4 12.3 26 32.2
2010-05-18 11:59:54 51°34.22 2°38.632 30 12.3 26 34.4
2010-05-18 12:00:54 51°34.404 2°38.774 29 12.3 26 32.5
2010-05-18 12:01:54 51°34.588 2°38.918 29.4 12.3 26 32.2
2010-05-18 12:02:54 51°34.773 2°39.062 28.5 12.3 24 32.7
2010-05-18 12:03:54 51°34.97 2°39.158 17.9 12.5 13 31.9
2010-05-18 12:04:54 51°35.17 2°39.237 18.6 12.3 14 32.7
2010-05-18 12:05:55 51°35.372 2°39.319 18.7 12.4 13 32.1
2010-05-18 12:06:54 51°35.569 2°39.402 19.1 12.3 18 31.5
2010-05-18 12:07:54 51°35.683 2°39.655 71.2 12.2 78 30.2
2010-05-18 12:08:54 51°35.644 2°39.978 111.9 12.9 123 28
2010-05-18 12:09:54 51°35.483 2°40.222 138.6 13.8 143 27.9
2010-05-18 12:10:54 51°35.283 2°40.408 145.5 13.8 153 25.2
2010-05-18 12:11:54 51°35.067 2°40.552 154.3 14.2 159 21
2010-05-18 12:12:54 51°34.842 2°40.68 155.6 14.4 161 22.7
2010-05-18 12:13:54 51°34.612 2°40.805 155.9 14.9 161 34.3
2010-05-18 12:14:55 51°34.38 2°40.932 154.4 14.4 160 39.3
2010-05-18 12:15:54 51°34.155 2°41.051 160.4 14.6 168 38.6
2010-05-18 12:16:54 51°33.911 2°41.091 173.4 14.9 175 40
2010-05-18 12:17:54 51°33.663 2°41.114 173 15 178 39.2
2010-05-18 12:18:54 51°33.413 2°41.14 171.8 14.9 176 38.7
2010-05-18 12:19:54 51°33.165 2°41.166 171.4 14.8 175 37.6
2010-05-18 12:20:54 51°32.918 2°41.198 171.3 14.7 175 37.1
2010-05-18 12:21:54 51°32.674 2°41.235 171.3 14.7 175 37.8
2010-05-18 12:22:54 51°32.429 2°41.271 171.7 14.8 177 37.3
2010-05-18 12:23:54 51°32.186 2°41.305 171.4 14.7 173 35.9
2010-05-18 12:24:54 51°31.943 2°41.343 170.8 14.8 175 37.1
2010-05-18 12:25:54 51°31.698 2°41.377 172 14.6 175 33.5
2010-05-18 12:26:54 51°31.456 2°41.414 171.8 14.7 171 34
2010-05-18 12:27:54 51°31.216 2°41.451 170.9 14.4 173 36.1
2010-05-18 12:28:54 51°30.978 2°41.492 171.9 14.4 175 34.3
2010-05-18 12:29:55 51°30.735 2°41.532 171 14.4 176 33.6
2010-05-18 12:30:54 51°30.501 2°41.574 170.4 14.4 172 34.3
2010-05-18 12:31:54 51°30.261 2°41.605 171.6 14.5 175 34.8
2010-05-18 12:32:54 51°30.02 2°41.638 172 14.6 175 35.2
2010-05-18 12:33:54 51°29.78 2°41.673 171.4 14.4 171 33.1
2010-05-18 12:34:55 51°29.536 2°41.708 171.1 14.6 176 32.5
2010-05-18 12:35:54 51°29.298 2°41.742 172.1 14.6 175 31.3
2010-05-18 12:36:54 51°29.056 2°41.775 171.2 14.5 175 32.4
2010-05-18 12:37:54 51°28.815 2°41.811 171.2 14.5 175 32.7
2010-05-18 12:38:54 51°28.574 2°41.845 172.1 14.4 175 31.5
2010-05-18 12:40:27 51°28.202 2°41.898 171.4 14.6 174 32.6
2010-05-18 12:42:45 51°27.649 2°41.981 171 14.5 175 33.7
2010-05-18 12:43:45 51°27.411 2°42.017 170.7 14.2 174 31.9
2010-05-18 12:44:45 51°27.173 2°42.054 171.2 14.1 175 31.5
2010-05-18 12:45:45 51°26.936 2°42.089 172.6 14.1 178 31.2
2010-05-18 12:46:44 51°26.706 2°42.111 171 14 175 31.1
2010-05-18 12:47:45 51°26.469 2°42.135 171.2 14 177 31.2
2010-05-18 12:48:45 51°26.237 2°42.16 169.9 14 174 28.8
2010-05-18 12:49:45 51°26.015 2°42.255 153.8 13.8 159 27.4
2010-05-18 12:50:44 51°25.807 2°42.392 152 13.7 158 27.6
2010-05-18 12:51:45 51°25.591 2°42.533 152.3 13.8 157 26.7
2010-05-18 12:52:45 51°25.375 2°42.671 152.7 13.9 158 25.6
2010-05-18 12:53:45 51°25.158 2°42.809 152.5 14.1 159 23.5
2010-05-18 12:54:45 51°24.94 2°42.95 153.5 14.2 157 22
2010-05-18 12:55:45 51°24.726 2°43.107 149.5 14.1 154 24.8
2010-05-18 12:56:45 51°24.516 2°43.265 149.6 13.8 154 25
2010-05-18 12:57:45 51°24.308 2°43.417 150.8 13.5 155 26.3
2010-05-18 12:58:45 51°24.103 2°43.563 150.3 13.4 156 23.5
2010-05-18 12:59:45 51°23.898 2°43.711 150 13.4 158 27.2
2010-05-18 13:00:45 51°23.691 2°43.859 150.6 13.6 155 26.5
2010-05-18 13:01:44 51°23.488 2°44.003 150.7 13.7 153 26.8
2010-05-18 13:02:45 51°23.278 2°44.157 149.7 13.6 155 27.3
2010-05-18 13:03:45 51°23.071 2°44.312 150.5 13.7 153 28.3
2010-05-18 13:04:45 51°22.862 2°44.466 150.3 14 157 26.1
2010-05-18 13:05:45 51°22.652 2°44.62 151.1 14 158 27.9
2010-05-18 13:06:45 51°22.462 2°44.819 137.3 13.6 142 26.6
2010-05-18 13:07:45 51°22.298 2°45.068 133 13.8 136 24.4
2010-05-18 13:08:45 51°22.134 2°45.322 133.2 13.8 132 23.9
2010-05-18 13:09:45 51°21.966 2°45.576 133.3 14 135 23
2010-05-18 13:10:44 51°21.8 2°45.827 133.8 14 140 24.1
2010-05-18 13:11:45 51°21.63 2°46.086 133.6 14 135 26.2
2010-05-18 13:12:45 51°21.461 2°46.342 134 13.9 135 26.6
2010-05-18 13:13:44 51°21.297 2°46.595 133.6 13.9 134 24.2
2010-05-18 13:14:45 51°21.127 2°46.855 133.7 13.8 137 24.7
2010-05-18 13:15:45 51°20.961 2°47.11 134.8 13.8 137 23.7
2010-05-18 13:16:45 51°20.796 2°47.365 134 13.9 134 19.9
2010-05-18 13:17:45 51°20.629 2°47.616 133.9 13.7 135 19.4
2010-05-18 13:18:45 51°20.463 2°47.862 134.4 13.6 137 21.8
2010-05-18 13:19:45 51°20.298 2°48.107 134.9 13.6 137 23.3
2010-05-18 13:20:45 51°20.134 2°48.35 133.6 13.3 137 23.8
2010-05-18 13:21:45 51°19.969 2°48.599 134.2 13.7 133 23.6
2010-05-18 13:22:45 51°19.805 2°48.848 133.9 13.7 135 21.3
2010-05-18 13:23:45 51°19.641 2°49.1 134.4 13.7 136 19
2010-05-18 13:24:45 51°19.476 2°49.356 134.9 13.9 134 16.4
2010-05-18 13:25:45 51°19.31 2°49.611 134.5 13.9 136 14.2
2010-05-18 13:26:45 51°19.145 2°49.87 135.1 14 134 12.5
2010-05-18 13:27:45 51°18.982 2°50.136 133.2 14.1 132 14.2
2010-05-18 13:28:45 51°18.817 2°50.399 134.8 14.1 134 15.7
2010-05-18 13:29:45 51°18.641 2°50.635 140.7 13.8 142 15.9
2010-05-18 13:30:45 51°18.455 2°50.853 142.1 13.8 145 15.4
2010-05-18 13:31:45 51°18.271 2°51.077 141.3 13.8 143 14.5
2010-05-18 13:32:45 51°18.087 2°51.301 141.1 13.8 145 13.3
2010-05-18 13:33:45 51°17.898 2°51.513 144.1 13.9 146 12
2010-05-18 13:34:45 51°17.706 2°51.723 144.1 14.1 145 11.7
2010-05-18 13:35:44 51°17.512 2°51.911 148.3 13.8 149 12.2
2010-05-18 13:36:45 51°17.309 2°52.103 148.9 13.9 149 13.3
2010-05-18 13:37:44 51°17.117 2°52.293 148.6 13.8 147 12
2010-05-18 13:38:45 51°16.918 2°52.49 149 13.8 149 11.4
2010-05-18 13:39:45 51°16.719 2°52.673 153.1 13.7 152 12
2010-05-18 13:40:45 51°16.517 2°52.857 152.3 13.9 149 13.5
2010-05-18 13:41:45 51°16.314 2°53.032 153.2 13.8 151 13.9
2010-05-18 13:45:48 51°15.502 2°53.745 149.1 13.8 147 12.5
2010-05-18 13:46:47 51°15.32 2°53.954 146 13.7 142 11.6
2010-05-18 13:47:48 51°15.144 2°54.194 140.6 13.6 137 11.4
2010-05-18 13:48:48 51°14.979 2°54.447 138.5 13.8 135 11.9
2010-05-18 13:49:48 51°14.816 2°54.694 141.1 13.5 136 13.7
2010-05-18 13:50:48 51°14.636 2°54.916 150.4 13.6 145 13.4
2010-05-18 13:51:47 51°14.459 2°55.122 148.9 12.5 147 12.5
2010-05-18 13:52:48 51°14.312 2°55.262 150.3 8.4 151 13.1
2010-05-18 13:53:47 51°14.215 2°55.355 148.8 6.3 149 13.1
2010-05-18 13:54:48 51°14.127 2°55.427 154.8 5.3 153 13.2
2010-05-18 13:55:48 51°14.046 2°55.486 157.2 5.6 156 13.2
2010-05-18 13:56:48 51°13.954 2°55.541 156.8 6 157 13.2
2010-05-18 13:57:47 51°13.859 2°55.61 156.6 6.7 157 13.2
2010-05-18 13:58:51 51°13.771 2°55.688 136.3 4.7 139 13.4
2010-05-18 13:59:51 51°13.726 2°55.772 124.9 4 126 -999
2010-05-18 14:00:52 51°13.687 2°55.861 120.7 3.9 122 -999
2010-05-18 14:01:51 51°13.665 2°55.941 108.3 2.5 106 -999